sensor_id;sensor_type;location;lat;lon;timestamp;temperature;humidity
16289;DHT22;26089;43.538;5.250;2023-02-28T00:00:25;5.50;99.90
16289;DHT22;26089;43.538;5.250;2023-02-28T00:02:52;5.90;99.90
16289;DHT22;26089;43.538;5.250;2023-02-28T00:05:21;5.80;99.90
16289;DHT22;26089;43.538;5.250;2023-02-28T00:07:48;5.80;99.90
16289;DHT22;26089;43.538;5.250;2023-02-28T00:10:17;5.80;99.90
16289;DHT22;26089;43.538;5.250;2023-02-28T00:12:48;5.80;99.90
16289;DHT22;26089;43.538;5.250;2023-02-28T00:15:15;5.90;99.90
16289;DHT22;26089;43.538;5.250;2023-02-28T00:17:42;5.90;99.90
16289;DHT22;26089;43.538;5.250;2023-02-28T00:20:11;5.90;99.90
16289;DHT22;26089;43.538;5.250;2023-02-28T00:22:40;6.00;99.90
16289;DHT22;26089;43.538;5.250;2023-02-28T00:25:08;5.90;99.90
16289;DHT22;26089;43.538;5.250;2023-02-28T00:27:36;6.60;99.90
16289;DHT22;26089;43.538;5.250;2023-02-28T00:30:08;6.00;99.90
16289;DHT22;26089;43.538;5.250;2023-02-28T00:32:36;6.50;99.90
16289;DHT22;26089;43.538;5.250;2023-02-28T00:35:04;6.00;99.90
16289;DHT22;26089;43.538;5.250;2023-02-28T00:37:31;6.00;99.90
16289;DHT22;26089;43.538;5.250;2023-02-28T00:39:58;5.90;99.90
16289;DHT22;26089;43.538;5.250;2023-02-28T00:42:25;5.00;99.90
16289;DHT22;26089;43.538;5.250;2023-02-28T00:44:52;5.80;99.90
16289;DHT22;26089;43.538;5.250;2023-02-28T00:47:21;5.80;99.90
16289;DHT22;26089;43.538;5.250;2023-02-28T00:49:48;5.90;99.90
16289;DHT22;26089;43.538;5.250;2023-02-28T00:52:15;5.80;99.90
16289;DHT22;26089;43.538;5.250;2023-02-28T00:54:42;5.80;99.90
16289;DHT22;26089;43.538;5.250;2023-02-28T00:57:09;5.70;99.90
16289;DHT22;26089;43.538;5.250;2023-02-28T00:59:36;5.70;99.90
16289;DHT22;26089;43.538;5.250;2023-02-28T01:02:03;5.60;99.90
16289;DHT22;26089;43.538;5.250;2023-02-28T01:04:31;5.70;99.90
16289;DHT22;26089;43.538;5.250;2023-02-28T01:06:58;6.00;99.90
16289;DHT22;26089;43.538;5.250;2023-02-28T01:09:25;5.60;99.90
16289;DHT22;26089;43.538;5.250;2023-02-28T01:11:52;5.30;99.90
16289;DHT22;26089;43.538;5.250;2023-02-28T01:14:19;5.60;99.90
16289;DHT22;26089;43.538;5.250;2023-02-28T01:16:46;5.50;99.90
16289;DHT22;26089;43.538;5.250;2023-02-28T01:19:13;5.50;99.90
16289;DHT22;26089;43.538;5.250;2023-02-28T01:21:42;5.50;99.90
16289;DHT22;26089;43.538;5.250;2023-02-28T01:24:09;5.90;99.90
16289;DHT22;26089;43.538;5.250;2023-02-28T01:26:36;5.50;99.90
16289;DHT22;26089;43.538;5.250;2023-02-28T01:29:03;6.80;99.90
16289;DHT22;26089;43.538;5.250;2023-02-28T01:31:30;5.90;99.90
16289;DHT22;26089;43.538;5.250;2023-02-28T01:33:57;5.50;99.90
16289;DHT22;26089;43.538;5.250;2023-02-28T01:36:25;5.40;99.90
16289;DHT22;26089;43.538;5.250;2023-02-28T01:38:54;5.40;99.90
16289;DHT22;26089;43.538;5.250;2023-02-28T01:41:22;5.30;99.90
16289;DHT22;26089;43.538;5.250;2023-02-28T01:43:55;5.50;99.90
16289;DHT22;26089;43.538;5.250;2023-02-28T01:46:22;5.10;99.90
16289;DHT22;26089;43.538;5.250;2023-02-28T01:48:53;4.90;99.90
16289;DHT22;26089;43.538;5.250;2023-02-28T01:51:24;5.30;99.90
16289;DHT22;26089;43.538;5.250;2023-02-28T01:53:57;5.20;99.90
16289;DHT22;26089;43.538;5.250;2023-02-28T01:56:29;5.20;99.90
16289;DHT22;26089;43.538;5.250;2023-02-28T01:58:57;5.40;99.90
16289;DHT22;26089;43.538;5.250;2023-02-28T02:01:26;5.30;99.90
16289;DHT22;26089;43.538;5.250;2023-02-28T02:03:55;5.20;99.90
16289;DHT22;26089;43.538;5.250;2023-02-28T02:06:23;5.20;99.90
16289;DHT22;26089;43.538;5.250;2023-02-28T02:08:51;5.30;99.90
16289;DHT22;26089;43.538;5.250;2023-02-28T02:11:22;5.80;99.90
16289;DHT22;26089;43.538;5.250;2023-02-28T02:14:03;5.20;99.90
16289;DHT22;26089;43.538;5.250;2023-02-28T02:16:46;5.30;99.90
16289;DHT22;26089;43.538;5.250;2023-02-28T02:22:38;5.10;99.90
16289;DHT22;26089;43.538;5.250;2023-02-28T02:25:23;5.30;99.90
16289;DHT22;26089;43.538;5.250;2023-02-28T02:28:20;5.10;99.90
16289;DHT22;26089;43.538;5.250;2023-02-28T02:34:18;5.00;99.90
16289;DHT22;26089;43.538;5.250;2023-02-28T02:36:52;4.90;99.90
16289;DHT22;26089;43.538;5.250;2023-02-28T02:39:27;4.80;99.90
16289;DHT22;26089;43.538;5.250;2023-02-28T02:42:00;4.80;99.90
16289;DHT22;26089;43.538;5.250;2023-02-28T02:44:31;4.80;99.90
16289;DHT22;26089;43.538;5.250;2023-02-28T02:47:10;4.90;99.90
16289;DHT22;26089;43.538;5.250;2023-02-28T02:49:43;4.70;99.90
16289;DHT22;26089;43.538;5.250;2023-02-28T02:52:14;4.60;99.90
16289;DHT22;26089;43.538;5.250;2023-02-28T02:54:44;4.70;99.90
16289;DHT22;26089;43.538;5.250;2023-02-28T02:57:16;5.70;99.90
16289;DHT22;26089;43.538;5.250;2023-02-28T02:59:44;4.60;99.90
16289;DHT22;26089;43.538;5.250;2023-02-28T03:02:14;4.90;99.90
16289;DHT22;26089;43.538;5.250;2023-02-28T03:04:50;4.50;99.90
16289;DHT22;26089;43.538;5.250;2023-02-28T03:07:18;4.50;99.90
16289;DHT22;26089;43.538;5.250;2023-02-28T03:09:50;4.50;99.90
16289;DHT22;26089;43.538;5.250;2023-02-28T03:12:18;4.50;99.90
16289;DHT22;26089;43.538;5.250;2023-02-28T03:14:55;4.20;99.90
16289;DHT22;26089;43.538;5.250;2023-02-28T03:17:54;4.50;99.90
16289;DHT22;26089;43.538;5.250;2023-02-28T03:20:35;4.30;99.90
16289;DHT22;26089;43.538;5.250;2023-02-28T03:23:15;5.00;99.90
16289;DHT22;26089;43.538;5.250;2023-02-28T03:25:54;4.60;99.90
16289;DHT22;26089;43.538;5.250;2023-02-28T03:28:30;5.40;99.90
16289;DHT22;26089;43.538;5.250;2023-02-28T03:31:01;4.60;99.90
16289;DHT22;26089;43.538;5.250;2023-02-28T03:33:32;4.60;99.90
16289;DHT22;26089;43.538;5.250;2023-02-28T03:36:06;4.80;99.90
16289;DHT22;26089;43.538;5.250;2023-02-28T03:38:39;4.60;99.90
16289;DHT22;26089;43.538;5.250;2023-02-28T03:41:12;4.40;99.90
16289;DHT22;26089;43.538;5.250;2023-02-28T03:43:45;4.50;99.90
16289;DHT22;26089;43.538;5.250;2023-02-28T03:46:16;4.50;99.90
16289;DHT22;26089;43.538;5.250;2023-02-28T03:48:51;5.10;99.90
16289;DHT22;26089;43.538;5.250;2023-02-28T03:51:23;4.70;99.90
16289;DHT22;26089;43.538;5.250;2023-02-28T03:53:53;3.20;99.90
16289;DHT22;26089;43.538;5.250;2023-02-28T03:56:24;4.20;99.90
16289;DHT22;26089;43.538;5.250;2023-02-28T03:58:55;4.20;99.90
16289;DHT22;26089;43.538;5.250;2023-02-28T04:01:30;4.30;99.90
16289;DHT22;26089;43.538;5.250;2023-02-28T04:03:58;4.10;99.90
16289;DHT22;26089;43.538;5.250;2023-02-28T04:06:27;3.80;99.90
16289;DHT22;26089;43.538;5.250;2023-02-28T04:08:57;4.10;99.90
16289;DHT22;26089;43.538;5.250;2023-02-28T04:11:27;4.00;99.90
16289;DHT22;26089;43.538;5.250;2023-02-28T04:13:56;3.20;99.90
16289;DHT22;26089;43.538;5.250;2023-02-28T04:16:23;4.00;99.90
16289;DHT22;26089;43.538;5.250;2023-02-28T04:18:50;4.00;99.90
16289;DHT22;26089;43.538;5.250;2023-02-28T04:21:17;4.00;99.90
16289;DHT22;26089;43.538;5.250;2023-02-28T04:23:48;3.90;99.90
16289;DHT22;26089;43.538;5.250;2023-02-28T04:26:15;3.90;99.90
16289;DHT22;26089;43.538;5.250;2023-02-28T04:28:42;4.10;99.90
16289;DHT22;26089;43.538;5.250;2023-02-28T04:31:09;3.80;99.90
16289;DHT22;26089;43.538;5.250;2023-02-28T04:33:36;3.80;99.90
16289;DHT22;26089;43.538;5.250;2023-02-28T04:36:04;3.80;99.90
16289;DHT22;26089;43.538;5.250;2023-02-28T04:38:33;3.80;99.90
16289;DHT22;26089;43.538;5.250;2023-02-28T04:41:02;3.70;99.90
16289;DHT22;26089;43.538;5.250;2023-02-28T04:43:29;3.70;99.90
16289;DHT22;26089;43.538;5.250;2023-02-28T04:45:58;3.80;99.90
16289;DHT22;26089;43.538;5.250;2023-02-28T04:48:28;3.80;99.90
16289;DHT22;26089;43.538;5.250;2023-02-28T04:51:00;3.90;99.90
16289;DHT22;26089;43.538;5.250;2023-02-28T04:53:28;3.90;99.90
16289;DHT22;26089;43.538;5.250;2023-02-28T04:55:55;3.90;99.90
16289;DHT22;26089;43.538;5.250;2023-02-28T04:58:24;3.90;99.90
16289;DHT22;26089;43.538;5.250;2023-02-28T05:00:52;3.90;99.90
16289;DHT22;26089;43.538;5.250;2023-02-28T05:03:19;4.00;99.90
16289;DHT22;26089;43.538;5.250;2023-02-28T05:05:47;4.00;99.90
16289;DHT22;26089;43.538;5.250;2023-02-28T05:08:14;3.90;99.90
16289;DHT22;26089;43.538;5.250;2023-02-28T05:10:41;4.00;99.90
16289;DHT22;26089;43.538;5.250;2023-02-28T05:13:10;4.00;99.90
16289;DHT22;26089;43.538;5.250;2023-02-28T05:15:39;4.30;99.90
16289;DHT22;26089;43.538;5.250;2023-02-28T05:18:08;4.00;99.90
16289;DHT22;26089;43.538;5.250;2023-02-28T05:20:35;4.40;99.90
16289;DHT22;26089;43.538;5.250;2023-02-28T05:23:03;4.20;99.90
16289;DHT22;26089;43.538;5.250;2023-02-28T05:25:30;4.00;99.90
16289;DHT22;26089;43.538;5.250;2023-02-28T05:27:57;4.00;99.90
16289;DHT22;26089;43.538;5.250;2023-02-28T05:30:24;4.00;99.90
16289;DHT22;26089;43.538;5.250;2023-02-28T05:32:53;3.90;99.90
16289;DHT22;26089;43.538;5.250;2023-02-28T05:35:20;3.90;99.90
16289;DHT22;26089;43.538;5.250;2023-02-28T05:37:47;3.90;99.90
16289;DHT22;26089;43.538;5.250;2023-02-28T05:40:14;5.20;99.90
16289;DHT22;26089;43.538;5.250;2023-02-28T05:42:41;3.90;99.90
16289;DHT22;26089;43.538;5.250;2023-02-28T05:45:09;4.20;99.90
16289;DHT22;26089;43.538;5.250;2023-02-28T05:47:36;4.10;99.90
16289;DHT22;26089;43.538;5.250;2023-02-28T05:50:06;4.00;99.90
16289;DHT22;26089;43.538;5.250;2023-02-28T05:52:34;4.00;99.90
16289;DHT22;26089;43.538;5.250;2023-02-28T05:55:02;4.10;99.90
16289;DHT22;26089;43.538;5.250;2023-02-28T05:57:29;5.20;99.90
16289;DHT22;26089;43.538;5.250;2023-02-28T05:59:56;4.20;99.90
16289;DHT22;26089;43.538;5.250;2023-02-28T06:02:23;4.10;99.90
16289;DHT22;26089;43.538;5.250;2023-02-28T06:04:50;4.10;99.90
16289;DHT22;26089;43.538;5.250;2023-02-28T06:07:18;4.00;99.90
16289;DHT22;26089;43.538;5.250;2023-02-28T06:09:45;4.60;99.90
16289;DHT22;26089;43.538;5.250;2023-02-28T06:12:12;4.00;99.90
16289;DHT22;26089;43.538;5.250;2023-02-28T06:14:39;4.00;99.90
16289;DHT22;26089;43.538;5.250;2023-02-28T06:17:06;3.90;99.90
16289;DHT22;26089;43.538;5.250;2023-02-28T06:19:33;3.60;99.90
16289;DHT22;26089;43.538;5.250;2023-02-28T06:22:00;3.90;99.90
16289;DHT22;26089;43.538;5.250;2023-02-28T06:24:28;3.80;99.90
16289;DHT22;26089;43.538;5.250;2023-02-28T06:26:56;3.20;99.90
16289;DHT22;26089;43.538;5.250;2023-02-28T06:29:25;3.60;99.90
16289;DHT22;26089;43.538;5.250;2023-02-28T06:31:52;3.60;99.90
16289;DHT22;26089;43.538;5.250;2023-02-28T06:34:19;3.30;99.90
16289;DHT22;26089;43.538;5.250;2023-02-28T06:36:46;3.80;99.90
16289;DHT22;26089;43.538;5.250;2023-02-28T06:39:13;5.40;99.90
16289;DHT22;26089;43.538;5.250;2023-02-28T06:41:41;4.50;99.90
16289;DHT22;26089;43.538;5.250;2023-02-28T06:44:11;3.90;99.90
16289;DHT22;26089;43.538;5.250;2023-02-28T06:46:39;4.60;99.90
16289;DHT22;26089;43.538;5.250;2023-02-28T06:49:06;3.90;99.90
16289;DHT22;26089;43.538;5.250;2023-02-28T06:51:36;5.00;99.90
16289;DHT22;26089;43.538;5.250;2023-02-28T06:54:04;3.70;99.90
16289;DHT22;26089;43.538;5.250;2023-02-28T06:56:34;3.90;99.90
16289;DHT22;26089;43.538;5.250;2023-02-28T06:59:03;4.30;99.90
16289;DHT22;26089;43.538;5.250;2023-02-28T07:01:30;3.90;99.90
16289;DHT22;26089;43.538;5.250;2023-02-28T07:03:59;3.90;99.90
16289;DHT22;26089;43.538;5.250;2023-02-28T07:06:26;3.90;99.90
16289;DHT22;26089;43.538;5.250;2023-02-28T07:08:54;4.00;99.90
16289;DHT22;26089;43.538;5.250;2023-02-28T07:11:22;4.00;99.90
16289;DHT22;26089;43.538;5.250;2023-02-28T07:13:51;4.00;99.90
16289;DHT22;26089;43.538;5.250;2023-02-28T07:16:20;4.00;99.90
16289;DHT22;26089;43.538;5.250;2023-02-28T07:18:48;4.00;99.90
16289;DHT22;26089;43.538;5.250;2023-02-28T07:21:15;4.10;99.90
16289;DHT22;26089;43.538;5.250;2023-02-28T07:23:42;4.10;99.90
16289;DHT22;26089;43.538;5.250;2023-02-28T07:26:13;4.10;99.90
16289;DHT22;26089;43.538;5.250;2023-02-28T07:28:41;4.20;99.90
16289;DHT22;26089;43.538;5.250;2023-02-28T07:31:09;4.20;99.90
16289;DHT22;26089;43.538;5.250;2023-02-28T07:33:37;4.20;99.90
16289;DHT22;26089;43.538;5.250;2023-02-28T07:36:06;4.20;99.90
16289;DHT22;26089;43.538;5.250;2023-02-28T07:38:34;4.30;99.90
16289;DHT22;26089;43.538;5.250;2023-02-28T07:41:01;4.30;99.90
16289;DHT22;26089;43.538;5.250;2023-02-28T07:43:30;4.30;99.90
16289;DHT22;26089;43.538;5.250;2023-02-28T07:46:02;4.30;99.90
16289;DHT22;26089;43.538;5.250;2023-02-28T07:48:29;4.40;99.90
16289;DHT22;26089;43.538;5.250;2023-02-28T07:50:58;4.50;99.90
16289;DHT22;26089;43.538;5.250;2023-02-28T07:53:26;4.50;99.90
16289;DHT22;26089;43.538;5.250;2023-02-28T07:55:55;4.50;99.90
16289;DHT22;26089;43.538;5.250;2023-02-28T07:58:22;5.50;99.90
16289;DHT22;26089;43.538;5.250;2023-02-28T08:00:49;4.50;99.90
16289;DHT22;26089;43.538;5.250;2023-02-28T08:03:17;4.50;99.90
16289;DHT22;26089;43.538;5.250;2023-02-28T08:05:45;4.50;99.90
16289;DHT22;26089;43.538;5.250;2023-02-28T08:08:14;4.50;99.90
16289;DHT22;26089;43.538;5.250;2023-02-28T08:10:41;4.50;99.90
16289;DHT22;26089;43.538;5.250;2023-02-28T08:13:08;4.50;99.90
16289;DHT22;26089;43.538;5.250;2023-02-28T08:15:35;4.70;99.90
16289;DHT22;26089;43.538;5.250;2023-02-28T08:18:03;4.50;99.90
16289;DHT22;26089;43.538;5.250;2023-02-28T08:20:30;4.50;99.90
16289;DHT22;26089;43.538;5.250;2023-02-28T08:22:57;4.50;99.90
16289;DHT22;26089;43.538;5.250;2023-02-28T08:25:25;4.60;99.90
16289;DHT22;26089;43.538;5.250;2023-02-28T08:27:52;4.80;99.90
16289;DHT22;26089;43.538;5.250;2023-02-28T08:30:20;4.80;99.90
16289;DHT22;26089;43.538;5.250;2023-02-28T08:32:47;4.70;99.90
16289;DHT22;26089;43.538;5.250;2023-02-28T08:35:14;4.80;99.90
16289;DHT22;26089;43.538;5.250;2023-02-28T08:37:41;4.70;99.90
16289;DHT22;26089;43.538;5.250;2023-02-28T08:40:09;4.90;99.90
16289;DHT22;26089;43.538;5.250;2023-02-28T08:42:37;5.00;99.90
16289;DHT22;26089;43.538;5.250;2023-02-28T08:45:05;5.70;99.90
16289;DHT22;26089;43.538;5.250;2023-02-28T08:47:33;5.60;99.90
16289;DHT22;26089;43.538;5.250;2023-02-28T08:50:00;5.40;99.90
16289;DHT22;26089;43.538;5.250;2023-02-28T08:52:27;6.00;99.90
16289;DHT22;26089;43.538;5.250;2023-02-28T08:54:54;5.60;99.90
16289;DHT22;26089;43.538;5.250;2023-02-28T08:57:21;5.80;99.90
16289;DHT22;26089;43.538;5.250;2023-02-28T08:59:49;5.90;99.90
16289;DHT22;26089;43.538;5.250;2023-02-28T09:02:17;5.90;99.90
16289;DHT22;26089;43.538;5.250;2023-02-28T09:04:44;5.80;99.90
16289;DHT22;26089;43.538;5.250;2023-02-28T09:07:12;5.70;99.90
16289;DHT22;26089;43.538;5.250;2023-02-28T09:09:39;5.80;99.90
16289;DHT22;26089;43.538;5.250;2023-02-28T09:12:19;5.80;99.90
16289;DHT22;26089;43.538;5.250;2023-02-28T09:14:46;5.80;99.90
16289;DHT22;26089;43.538;5.250;2023-02-28T09:17:14;5.80;99.90
16289;DHT22;26089;43.538;5.250;2023-02-28T09:19:41;6.10;99.90
16289;DHT22;26089;43.538;5.250;2023-02-28T09:22:09;5.90;99.90
16289;DHT22;26089;43.538;5.250;2023-02-28T09:24:37;6.00;99.90
16289;DHT22;26089;43.538;5.250;2023-02-28T09:27:04;6.00;99.90
16289;DHT22;26089;43.538;5.250;2023-02-28T09:29:32;6.00;99.90
16289;DHT22;26089;43.538;5.250;2023-02-28T09:32:00;5.90;99.90
16289;DHT22;26089;43.538;5.250;2023-02-28T09:34:28;5.70;99.90
16289;DHT22;26089;43.538;5.250;2023-02-28T09:36:57;6.00;99.90
16289;DHT22;26089;43.538;5.250;2023-02-28T09:39:24;5.60;99.90
16289;DHT22;26089;43.538;5.250;2023-02-28T09:41:53;6.20;99.90
16289;DHT22;26089;43.538;5.250;2023-02-28T09:44:24;7.40;99.90
16289;DHT22;26089;43.538;5.250;2023-02-28T09:46:57;6.20;99.90
16289;DHT22;26089;43.538;5.250;2023-02-28T09:49:34;6.60;99.90
16289;DHT22;26089;43.538;5.250;2023-02-28T09:52:05;6.80;99.90
16289;DHT22;26089;43.538;5.250;2023-02-28T09:54:36;7.00;99.90
16289;DHT22;26089;43.538;5.250;2023-02-28T09:57:08;7.00;99.90
16289;DHT22;26089;43.538;5.250;2023-02-28T09:59:47;8.10;99.90
16289;DHT22;26089;43.538;5.250;2023-02-28T10:02:35;7.60;99.90
16289;DHT22;26089;43.538;5.250;2023-02-28T10:05:08;7.30;99.90
16289;DHT22;26089;43.538;5.250;2023-02-28T10:07:48;7.20;99.90
16289;DHT22;26089;43.538;5.250;2023-02-28T10:10:24;7.20;99.90
16289;DHT22;26089;43.538;5.250;2023-02-28T10:12:54;7.00;99.90
16289;DHT22;26089;43.538;5.250;2023-02-28T10:15:24;6.80;99.90
16289;DHT22;26089;43.538;5.250;2023-02-28T10:17:56;6.80;99.90
16289;DHT22;26089;43.538;5.250;2023-02-28T10:20:26;6.70;99.90
16289;DHT22;26089;43.538;5.250;2023-02-28T10:22:59;6.50;99.90
16289;DHT22;26089;43.538;5.250;2023-02-28T10:25:34;6.40;99.90
16289;DHT22;26089;43.538;5.250;2023-02-28T10:28:09;6.40;99.90
16289;DHT22;26089;43.538;5.250;2023-02-28T10:30:40;6.40;99.90
16289;DHT22;26089;43.538;5.250;2023-02-28T10:33:20;6.40;99.90
16289;DHT22;26089;43.538;5.250;2023-02-28T10:35:49;6.30;99.90
16289;DHT22;26089;43.538;5.250;2023-02-28T10:38:19;7.10;99.90
16289;DHT22;26089;43.538;5.250;2023-02-28T10:40:46;6.60;99.90
16289;DHT22;26089;43.538;5.250;2023-02-28T10:43:20;6.80;99.90
16289;DHT22;26089;43.538;5.250;2023-02-28T10:45:59;7.00;99.90
16289;DHT22;26089;43.538;5.250;2023-02-28T10:48:34;8.50;99.90
16289;DHT22;26089;43.538;5.250;2023-02-28T10:51:05;6.50;99.90
16289;DHT22;26089;43.538;5.250;2023-02-28T10:53:37;7.30;99.90
16289;DHT22;26089;43.538;5.250;2023-02-28T10:56:12;7.60;99.90
16289;DHT22;26089;43.538;5.250;2023-02-28T10:58:49;7.80;99.90
16289;DHT22;26089;43.538;5.250;2023-02-28T11:01:18;8.10;99.90
16289;DHT22;26089;43.538;5.250;2023-02-28T11:03:46;8.00;99.90
16289;DHT22;26089;43.538;5.250;2023-02-28T11:06:17;7.70;99.90
16289;DHT22;26089;43.538;5.250;2023-02-28T11:08:50;8.10;99.90
16289;DHT22;26089;43.538;5.250;2023-02-28T11:11:19;7.70;99.90
16289;DHT22;26089;43.538;5.250;2023-02-28T11:13:50;7.50;99.90
16289;DHT22;26089;43.538;5.250;2023-02-28T11:16:18;7.40;99.90
16289;DHT22;26089;43.538;5.250;2023-02-28T11:18:49;7.30;99.90
16289;DHT22;26089;43.538;5.250;2023-02-28T11:21:21;7.20;99.90
16289;DHT22;26089;43.538;5.250;2023-02-28T11:23:51;7.50;99.90
16289;DHT22;26089;43.538;5.250;2023-02-28T11:26:38;7.20;99.90
16289;DHT22;26089;43.538;5.250;2023-02-28T11:29:17;7.20;99.90
16289;DHT22;26089;43.538;5.250;2023-02-28T11:32:05;7.30;99.90
16289;DHT22;26089;43.538;5.250;2023-02-28T11:34:36;7.40;99.90
16289;DHT22;26089;43.538;5.250;2023-02-28T11:37:08;7.50;99.90
16289;DHT22;26089;43.538;5.250;2023-02-28T11:39:37;7.60;99.90
16289;DHT22;26089;43.538;5.250;2023-02-28T11:45:12;7.90;99.90
16289;DHT22;26089;43.538;5.250;2023-02-28T11:47:47;8.10;99.90
16289;DHT22;26089;43.538;5.250;2023-02-28T11:50:22;8.00;99.90
16289;DHT22;26089;43.538;5.250;2023-02-28T11:52:56;7.80;99.90
16289;DHT22;26089;43.538;5.250;2023-02-28T11:55:27;7.90;99.90
16289;DHT22;26089;43.538;5.250;2023-02-28T12:01:05;8.40;99.90
16289;DHT22;26089;43.538;5.250;2023-02-28T12:03:43;7.80;99.90
16289;DHT22;26089;43.538;5.250;2023-02-28T12:06:18;7.90;99.90
16289;DHT22;26089;43.538;5.250;2023-02-28T12:08:58;7.70;99.90
16289;DHT22;26089;43.538;5.250;2023-02-28T12:11:36;7.50;99.90
16289;DHT22;26089;43.538;5.250;2023-02-28T12:14:23;7.60;99.90
16289;DHT22;26089;43.538;5.250;2023-02-28T12:17:00;7.70;99.90
16289;DHT22;26089;43.538;5.250;2023-02-28T12:19:37;7.70;99.90
16289;DHT22;26089;43.538;5.250;2023-02-28T12:22:27;7.70;99.90
16289;DHT22;26089;43.538;5.250;2023-02-28T12:25:18;7.70;99.90
16289;DHT22;26089;43.538;5.250;2023-02-28T12:27:48;7.70;99.90
16289;DHT22;26089;43.538;5.250;2023-02-28T12:30:21;7.60;99.90
16289;DHT22;26089;43.538;5.250;2023-02-28T12:32:52;7.50;99.90
16289;DHT22;26089;43.538;5.250;2023-02-28T12:35:24;8.10;99.90
16289;DHT22;26089;43.538;5.250;2023-02-28T12:37:56;7.60;99.90
16289;DHT22;26089;43.538;5.250;2023-02-28T12:40:28;7.50;99.90
16289;DHT22;26089;43.538;5.250;2023-02-28T12:43:03;7.60;99.90
16289;DHT22;26089;43.538;5.250;2023-02-28T12:45:40;7.80;99.90
16289;DHT22;26089;43.538;5.250;2023-02-28T12:48:11;7.90;99.90
16289;DHT22;26089;43.538;5.250;2023-02-28T12:50:41;7.90;99.90
16289;DHT22;26089;43.538;5.250;2023-02-28T12:53:12;7.90;99.90
16289;DHT22;26089;43.538;5.250;2023-02-28T12:55:45;8.10;99.90
16289;DHT22;26089;43.538;5.250;2023-02-28T12:58:19;8.20;99.90
16289;DHT22;26089;43.538;5.250;2023-02-28T13:07:05;8.20;99.90
16289;DHT22;26089;43.538;5.250;2023-02-28T13:09:37;8.20;99.90
16289;DHT22;26089;43.538;5.250;2023-02-28T13:12:14;8.50;99.90
16289;DHT22;26089;43.538;5.250;2023-02-28T13:14:42;8.20;99.90
16289;DHT22;26089;43.538;5.250;2023-02-28T13:17:15;8.10;99.90
16289;DHT22;26089;43.538;5.250;2023-02-28T13:19:46;8.10;99.90
16289;DHT22;26089;43.538;5.250;2023-02-28T13:22:38;8.10;99.90
16289;DHT22;26089;43.538;5.250;2023-02-28T13:28:10;8.10;99.90
16289;DHT22;26089;43.538;5.250;2023-02-28T13:31:04;8.10;99.90
16289;DHT22;26089;43.538;5.250;2023-02-28T13:33:32;8.00;99.90
16289;DHT22;26089;43.538;5.250;2023-02-28T13:36:08;7.90;99.90
16289;DHT22;26089;43.538;5.250;2023-02-28T13:38:38;7.90;99.90
16289;DHT22;26089;43.538;5.250;2023-02-28T13:41:40;8.00;99.90
16289;DHT22;26089;43.538;5.250;2023-02-28T13:44:10;8.00;99.90
16289;DHT22;26089;43.538;5.250;2023-02-28T13:47:22;8.10;99.90
16289;DHT22;26089;43.538;5.250;2023-02-28T13:49:51;8.10;99.90
16289;DHT22;26089;43.538;5.250;2023-02-28T13:52:21;8.00;99.90
16289;DHT22;26089;43.538;5.250;2023-02-28T13:58:15;8.00;99.90
16289;DHT22;26089;43.538;5.250;2023-02-28T14:01:00;8.00;99.90
16289;DHT22;26089;43.538;5.250;2023-02-28T14:03:45;7.90;99.90
16289;DHT22;26089;43.538;5.250;2023-02-28T14:06:22;8.00;99.90
16289;DHT22;26089;43.538;5.250;2023-02-28T14:08:57;8.00;99.90
16289;DHT22;26089;43.538;5.250;2023-02-28T14:11:29;7.80;99.90
16289;DHT22;26089;43.538;5.250;2023-02-28T14:13:57;7.60;99.90
16289;DHT22;26089;43.538;5.250;2023-02-28T14:16:27;7.60;99.90
16289;DHT22;26089;43.538;5.250;2023-02-28T14:18:58;7.70;99.90
16289;DHT22;26089;43.538;5.250;2023-02-28T14:21:29;7.70;99.90
16289;DHT22;26089;43.538;5.250;2023-02-28T14:27:15;7.80;99.90
16289;DHT22;26089;43.538;5.250;2023-02-28T14:30:11;8.00;99.90
16289;DHT22;26089;43.538;5.250;2023-02-28T14:32:47;8.00;99.90
16289;DHT22;26089;43.538;5.250;2023-02-28T14:35:47;8.00;99.90
16289;DHT22;26089;43.538;5.250;2023-02-28T14:38:21;8.10;99.90
16289;DHT22;26089;43.538;5.250;2023-02-28T14:40:51;8.10;99.90
16289;DHT22;26089;43.538;5.250;2023-02-28T14:43:21;8.10;99.90
16289;DHT22;26089;43.538;5.250;2023-02-28T14:45:51;8.00;99.90
16289;DHT22;26089;43.538;5.250;2023-02-28T14:48:20;7.90;99.90
16289;DHT22;26089;43.538;5.250;2023-02-28T14:50:49;8.30;99.90
16289;DHT22;26089;43.538;5.250;2023-02-28T14:53:20;8.20;99.90
16289;DHT22;26089;43.538;5.250;2023-02-28T14:55:48;7.30;99.90
16289;DHT22;26089;43.538;5.250;2023-02-28T14:58:24;7.80;99.90
16289;DHT22;26089;43.538;5.250;2023-02-28T15:00:52;7.90;99.90
16289;DHT22;26089;43.538;5.250;2023-02-28T15:03:23;7.90;99.90
16289;DHT22;26089;43.538;5.250;2023-02-28T15:05:54;8.00;99.90
16289;DHT22;26089;43.538;5.250;2023-02-28T15:08:22;7.80;99.90
16289;DHT22;26089;43.538;5.250;2023-02-28T15:10:54;7.90;99.90
16289;DHT22;26089;43.538;5.250;2023-02-28T15:13:23;7.90;99.90
16289;DHT22;26089;43.538;5.250;2023-02-28T15:15:53;8.00;99.90
16289;DHT22;26089;43.538;5.250;2023-02-28T15:18:31;7.30;99.90
16289;DHT22;26089;43.538;5.250;2023-02-28T15:21:03;8.10;99.90
16289;DHT22;26089;43.538;5.250;2023-02-28T15:23:30;7.90;99.90
16289;DHT22;26089;43.538;5.250;2023-02-28T15:25:59;7.60;99.90
16289;DHT22;26089;43.538;5.250;2023-02-28T15:28:27;7.70;99.90
16289;DHT22;26089;43.538;5.250;2023-02-28T15:30:56;7.60;99.90
16289;DHT22;26089;43.538;5.250;2023-02-28T15:33:27;7.40;99.90
16289;DHT22;26089;43.538;5.250;2023-02-28T15:36:06;7.40;99.90
16289;DHT22;26089;43.538;5.250;2023-02-28T15:38:35;7.90;99.90
16289;DHT22;26089;43.538;5.250;2023-02-28T15:41:02;7.30;99.90
16289;DHT22;26089;43.538;5.250;2023-02-28T15:43:35;7.50;99.90
16289;DHT22;26089;43.538;5.250;2023-02-28T15:46:04;7.50;99.90
16289;DHT22;26089;43.538;5.250;2023-02-28T15:48:35;8.50;99.90
16289;DHT22;26089;43.538;5.250;2023-02-28T15:51:07;7.70;99.90
16289;DHT22;26089;43.538;5.250;2023-02-28T15:53:37;7.50;99.90
16289;DHT22;26089;43.538;5.250;2023-02-28T15:56:22;7.50;99.90
16289;DHT22;26089;43.538;5.250;2023-02-28T15:58:50;7.50;99.90
16289;DHT22;26089;43.538;5.250;2023-02-28T16:01:24;7.50;99.90
16289;DHT22;26089;43.538;5.250;2023-02-28T16:03:54;7.40;99.90
16289;DHT22;26089;43.538;5.250;2023-02-28T16:06:37;7.20;99.90
16289;DHT22;26089;43.538;5.250;2023-02-28T16:09:07;7.30;99.90
16289;DHT22;26089;43.538;5.250;2023-02-28T16:11:38;7.50;99.90
16289;DHT22;26089;43.538;5.250;2023-02-28T16:14:08;7.40;99.90
16289;DHT22;26089;43.538;5.250;2023-02-28T16:16:42;7.30;99.90
16289;DHT22;26089;43.538;5.250;2023-02-28T16:19:11;7.10;99.90
16289;DHT22;26089;43.538;5.250;2023-02-28T16:21:38;7.10;99.90
16289;DHT22;26089;43.538;5.250;2023-02-28T16:24:05;7.00;99.90
16289;DHT22;26089;43.538;5.250;2023-02-28T16:26:32;7.00;99.90
16289;DHT22;26089;43.538;5.250;2023-02-28T16:29:01;7.00;99.90
16289;DHT22;26089;43.538;5.250;2023-02-28T16:31:28;6.90;99.90
16289;DHT22;26089;43.538;5.250;2023-02-28T16:33:56;6.90;99.90
16289;DHT22;26089;43.538;5.250;2023-02-28T16:36:24;6.40;99.90